sensor_id;sensor_type;location;lat;lon;timestamp;temperature;humidity
38239;DHT22;24035;48.900;9.188;2022-10-13T00:02:02;9.80;95.20
38239;DHT22;24035;48.900;9.188;2022-10-13T00:04:28;9.70;99.90
38239;DHT22;24035;48.900;9.188;2022-10-13T00:06:53;9.70;99.90
38239;DHT22;24035;48.900;9.188;2022-10-13T00:09:19;9.70;99.90
38239;DHT22;24035;48.900;9.188;2022-10-13T00:11:45;9.70;99.90
38239;DHT22;24035;48.900;9.188;2022-10-13T00:14:10;9.80;99.90
38239;DHT22;24035;48.900;9.188;2022-10-13T00:16:36;9.80;99.90
38239;DHT22;24035;48.900;9.188;2022-10-13T00:19:02;9.80;99.90
38239;DHT22;24035;48.900;9.188;2022-10-13T00:21:28;9.70;99.90
38239;DHT22;24035;48.900;9.188;2022-10-13T00:23:53;9.70;99.90
38239;DHT22;24035;48.900;9.188;2022-10-13T00:26:22;9.70;99.90
38239;DHT22;24035;48.900;9.188;2022-10-13T00:28:47;9.70;99.90
38239;DHT22;24035;48.900;9.188;2022-10-13T00:31:25;9.50;99.90
38239;DHT22;24035;48.900;9.188;2022-10-13T00:33:51;9.60;99.90
38239;DHT22;24035;48.900;9.188;2022-10-13T00:36:38;9.60;1.00
38239;DHT22;24035;48.900;9.188;2022-10-13T00:39:10;9.70;1.00
38239;DHT22;24035;48.900;9.188;2022-10-13T00:41:56;9.80;1.00
38239;DHT22;24035;48.900;9.188;2022-10-13T00:47:56;10.10;1.00
38239;DHT22;24035;48.900;9.188;2022-10-13T00:50:52;10.10;1.00
38239;DHT22;24035;48.900;9.188;2022-10-13T00:53:38;10.00;1.00
38239;DHT22;24035;48.900;9.188;2022-10-13T00:56:22;10.00;1.00
38239;DHT22;24035;48.900;9.188;2022-10-13T00:58:59;9.90;1.00
38239;DHT22;24035;48.900;9.188;2022-10-13T01:01:42;9.90;1.00
38239;DHT22;24035;48.900;9.188;2022-10-13T01:04:40;9.90;1.00
38239;DHT22;24035;48.900;9.188;2022-10-13T01:07:17;9.80;1.00
38239;DHT22;24035;48.900;9.188;2022-10-13T01:09:48;9.90;1.00
38239;DHT22;24035;48.900;9.188;2022-10-13T01:13:22;9.90;1.00
38239;DHT22;24035;48.900;9.188;2022-10-13T01:16:20;9.80;1.00
38239;DHT22;24035;48.900;9.188;2022-10-13T01:25:42;9.70;1.00
38239;DHT22;24035;48.900;9.188;2022-10-13T01:36:00;9.70;1.00
38239;DHT22;24035;48.900;9.188;2022-10-13T01:38:54;9.80;1.00
38239;DHT22;24035;48.900;9.188;2022-10-13T01:41:39;9.70;99.90
38239;DHT22;24035;48.900;9.188;2022-10-13T01:46:53;9.70;1.00
38239;DHT22;24035;48.900;9.188;2022-10-13T01:49:28;9.70;1.00
38239;DHT22;24035;48.900;9.188;2022-10-13T01:52:03;9.80;1.00
38239;DHT22;24035;48.900;9.188;2022-10-13T01:54:31;9.90;1.00
38239;DHT22;24035;48.900;9.188;2022-10-13T01:56:57;10.00;1.00
38239;DHT22;24035;48.900;9.188;2022-10-13T01:59:24;10.00;1.00
38239;DHT22;24035;48.900;9.188;2022-10-13T02:02:36;10.00;1.00
38239;DHT22;24035;48.900;9.188;2022-10-13T02:07:37;10.00;1.00
38239;DHT22;24035;48.900;9.188;2022-10-13T02:13:03;9.90;99.90
38239;DHT22;24035;48.900;9.188;2022-10-13T02:15:36;9.90;99.90
38239;DHT22;24035;48.900;9.188;2022-10-13T02:18:06;10.00;1.00
38239;DHT22;24035;48.900;9.188;2022-10-13T02:20:32;10.20;1.00
38239;DHT22;24035;48.900;9.188;2022-10-13T02:23:03;10.40;1.00
38239;DHT22;24035;48.900;9.188;2022-10-13T02:25:29;10.50;1.00
38239;DHT22;24035;48.900;9.188;2022-10-13T02:27:59;10.70;1.00
38239;DHT22;24035;48.900;9.188;2022-10-13T02:30:28;10.80;1.00
38239;DHT22;24035;48.900;9.188;2022-10-13T02:32:54;10.90;1.00
38239;DHT22;24035;48.900;9.188;2022-10-13T02:35:19;10.90;1.00
38239;DHT22;24035;48.900;9.188;2022-10-13T02:37:45;11.00;1.00
38239;DHT22;24035;48.900;9.188;2022-10-13T02:40:11;11.10;1.00
38239;DHT22;24035;48.900;9.188;2022-10-13T02:42:38;11.10;1.00
38239;DHT22;24035;48.900;9.188;2022-10-13T02:45:04;11.10;1.00
38239;DHT22;24035;48.900;9.188;2022-10-13T02:47:30;11.10;1.00
38239;DHT22;24035;48.900;9.188;2022-10-13T02:49:56;11.10;1.00
38239;DHT22;24035;48.900;9.188;2022-10-13T02:52:22;11.10;1.00
38239;DHT22;24035;48.900;9.188;2022-10-13T02:54:48;11.10;1.00
38239;DHT22;24035;48.900;9.188;2022-10-13T02:57:13;11.20;1.00
38239;DHT22;24035;48.900;9.188;2022-10-13T02:59:39;11.20;1.00
38239;DHT22;24035;48.900;9.188;2022-10-13T03:02:05;11.10;99.90
38239;DHT22;24035;48.900;9.188;2022-10-13T03:04:31;11.10;99.90
38239;DHT22;24035;48.900;9.188;2022-10-13T03:06:56;11.10;99.90
38239;DHT22;24035;48.900;9.188;2022-10-13T03:09:22;11.00;1.00
38239;DHT22;24035;48.900;9.188;2022-10-13T03:11:48;10.90;1.00
38239;DHT22;24035;48.900;9.188;2022-10-13T03:14:14;10.80;1.00
38239;DHT22;24035;48.900;9.188;2022-10-13T03:16:40;10.80;99.90
38239;DHT22;24035;48.900;9.188;2022-10-13T03:19:05;10.70;99.90
38239;DHT22;24035;48.900;9.188;2022-10-13T03:21:31;10.60;99.90
38239;DHT22;24035;48.900;9.188;2022-10-13T03:23:57;10.70;99.90
38239;DHT22;24035;48.900;9.188;2022-10-13T03:26:23;10.60;99.90
38239;DHT22;24035;48.900;9.188;2022-10-13T03:28:49;10.60;99.90
38239;DHT22;24035;48.900;9.188;2022-10-13T03:31:16;10.70;1.00
38239;DHT22;24035;48.900;9.188;2022-10-13T03:33:43;10.60;99.90
38239;DHT22;24035;48.900;9.188;2022-10-13T03:36:10;10.60;99.90
38239;DHT22;24035;48.900;9.188;2022-10-13T03:38:37;10.50;99.90
38239;DHT22;24035;48.900;9.188;2022-10-13T03:41:11;10.40;99.90
38239;DHT22;24035;48.900;9.188;2022-10-13T03:43:39;10.30;99.90
38239;DHT22;24035;48.900;9.188;2022-10-13T03:46:06;10.40;1.00
38239;DHT22;24035;48.900;9.188;2022-10-13T03:48:34;10.30;1.00
38239;DHT22;24035;48.900;9.188;2022-10-13T03:51:07;10.40;1.00
38239;DHT22;24035;48.900;9.188;2022-10-13T03:53:33;10.40;1.00
38239;DHT22;24035;48.900;9.188;2022-10-13T03:55:59;10.50;99.90
38239;DHT22;24035;48.900;9.188;2022-10-13T03:58:25;10.50;99.90
38239;DHT22;24035;48.900;9.188;2022-10-13T04:00:53;10.60;99.90
38239;DHT22;24035;48.900;9.188;2022-10-13T04:03:20;10.60;99.90
38239;DHT22;24035;48.900;9.188;2022-10-13T04:05:46;10.70;99.90
38239;DHT22;24035;48.900;9.188;2022-10-13T04:08:13;10.80;99.90
38239;DHT22;24035;48.900;9.188;2022-10-13T04:10:39;10.80;1.00
38239;DHT22;24035;48.900;9.188;2022-10-13T04:13:05;10.90;1.00
38239;DHT22;24035;48.900;9.188;2022-10-13T04:15:36;10.80;99.90
38239;DHT22;24035;48.900;9.188;2022-10-13T04:18:05;10.90;99.90
38239;DHT22;24035;48.900;9.188;2022-10-13T04:20:35;10.90;99.90
38239;DHT22;24035;48.900;9.188;2022-10-13T04:23:01;10.90;99.90
38239;DHT22;24035;48.900;9.188;2022-10-13T04:25:27;11.00;1.00
38239;DHT22;24035;48.900;9.188;2022-10-13T04:27:56;11.10;1.00
38239;DHT22;24035;48.900;9.188;2022-10-13T04:30:21;11.10;1.00
38239;DHT22;24035;48.900;9.188;2022-10-13T04:32:47;11.10;99.90
38239;DHT22;24035;48.900;9.188;2022-10-13T04:35:13;11.20;99.90
38239;DHT22;24035;48.900;9.188;2022-10-13T04:37:39;11.30;99.90
38239;DHT22;24035;48.900;9.188;2022-10-13T04:40:05;11.20;99.90
38239;DHT22;24035;48.900;9.188;2022-10-13T04:42:31;11.30;99.90
38239;DHT22;24035;48.900;9.188;2022-10-13T04:44:56;11.20;99.90
38239;DHT22;24035;48.900;9.188;2022-10-13T04:47:23;11.30;99.90
38239;DHT22;24035;48.900;9.188;2022-10-13T04:49:48;11.30;31.60
38239;DHT22;24035;48.900;9.188;2022-10-13T04:52:14;11.20;1.00
38239;DHT22;24035;48.900;9.188;2022-10-13T04:54:40;11.20;1.00
38239;DHT22;24035;48.900;9.188;2022-10-13T04:57:06;11.20;1.00
38239;DHT22;24035;48.900;9.188;2022-10-13T04:59:32;11.10;1.00
38239;DHT22;24035;48.900;9.188;2022-10-13T05:01:58;11.10;1.00
38239;DHT22;24035;48.900;9.188;2022-10-13T05:04:24;11.00;1.00
38239;DHT22;24035;48.900;9.188;2022-10-13T05:06:50;11.00;1.00
38239;DHT22;24035;48.900;9.188;2022-10-13T05:09:15;10.90;99.90
38239;DHT22;24035;48.900;9.188;2022-10-13T05:11:41;10.80;99.90
38239;DHT22;24035;48.900;9.188;2022-10-13T05:14:07;10.80;1.00
38239;DHT22;24035;48.900;9.188;2022-10-13T05:16:33;10.80;1.00
38239;DHT22;24035;48.900;9.188;2022-10-13T05:18:58;10.80;1.00
38239;DHT22;24035;48.900;9.188;2022-10-13T05:21:26;10.80;1.00
38239;DHT22;24035;48.900;9.188;2022-10-13T05:23:54;10.80;2.60
38239;DHT22;24035;48.900;9.188;2022-10-13T05:26:22;10.80;99.90
38239;DHT22;24035;48.900;9.188;2022-10-13T05:28:49;10.90;99.90
38239;DHT22;24035;48.900;9.188;2022-10-13T05:31:19;11.00;99.90
38239;DHT22;24035;48.900;9.188;2022-10-13T05:33:47;11.00;99.90
38239;DHT22;24035;48.900;9.188;2022-10-13T05:36:15;11.00;99.90
38239;DHT22;24035;48.900;9.188;2022-10-13T05:38:42;11.00;99.90
38239;DHT22;24035;48.900;9.188;2022-10-13T05:41:11;11.20;99.90
38239;DHT22;24035;48.900;9.188;2022-10-13T05:43:39;11.20;99.90
38239;DHT22;24035;48.900;9.188;2022-10-13T05:46:05;11.20;99.90
38239;DHT22;24035;48.900;9.188;2022-10-13T05:48:32;11.20;99.90
38239;DHT22;24035;48.900;9.188;2022-10-13T05:51:03;11.30;99.90
38239;DHT22;24035;48.900;9.188;2022-10-13T05:53:32;11.30;18.90
38239;DHT22;24035;48.900;9.188;2022-10-13T05:56:05;11.40;17.60
38239;DHT22;24035;48.900;9.188;2022-10-13T05:58:36;11.50;1.00
38239;DHT22;24035;48.900;9.188;2022-10-13T06:01:05;11.50;1.00
38239;DHT22;24035;48.900;9.188;2022-10-13T06:03:33;11.50;1.00
38239;DHT22;24035;48.900;9.188;2022-10-13T06:05:59;11.50;99.90
38239;DHT22;24035;48.900;9.188;2022-10-13T06:08:25;11.40;99.90
38239;DHT22;24035;48.900;9.188;2022-10-13T06:10:51;11.40;99.90
38239;DHT22;24035;48.900;9.188;2022-10-13T06:13:17;11.40;25.40
38239;DHT22;24035;48.900;9.188;2022-10-13T06:15:42;11.40;1.00
38239;DHT22;24035;48.900;9.188;2022-10-13T06:18:09;11.40;1.00
38239;DHT22;24035;48.900;9.188;2022-10-13T06:20:35;11.50;1.00
38239;DHT22;24035;48.900;9.188;2022-10-13T06:23:01;11.60;1.00
38239;DHT22;24035;48.900;9.188;2022-10-13T06:25:26;11.60;1.00
38239;DHT22;24035;48.900;9.188;2022-10-13T06:27:55;11.70;1.00
38239;DHT22;24035;48.900;9.188;2022-10-13T06:30:21;11.80;1.00
38239;DHT22;24035;48.900;9.188;2022-10-13T06:32:47;11.80;1.00
38239;DHT22;24035;48.900;9.188;2022-10-13T06:35:13;11.80;1.00
38239;DHT22;24035;48.900;9.188;2022-10-13T06:37:41;11.90;1.00
38239;DHT22;24035;48.900;9.188;2022-10-13T06:40:08;12.00;1.00
38239;DHT22;24035;48.900;9.188;2022-10-13T06:42:34;12.10;99.90
38239;DHT22;24035;48.900;9.188;2022-10-13T06:45:00;12.20;99.90
38239;DHT22;24035;48.900;9.188;2022-10-13T06:47:25;12.20;99.90
38239;DHT22;24035;48.900;9.188;2022-10-13T06:49:51;12.30;1.00
38239;DHT22;24035;48.900;9.188;2022-10-13T06:52:17;12.30;1.00
38239;DHT22;24035;48.900;9.188;2022-10-13T06:54:43;12.40;1.00
38239;DHT22;24035;48.900;9.188;2022-10-13T06:57:08;12.50;99.90
38239;DHT22;24035;48.900;9.188;2022-10-13T06:59:34;12.60;7.60
38239;DHT22;24035;48.900;9.188;2022-10-13T07:02:00;12.70;1.00
38239;DHT22;24035;48.900;9.188;2022-10-13T07:04:25;12.80;1.00
38239;DHT22;24035;48.900;9.188;2022-10-13T07:06:52;12.80;99.90
38239;DHT22;24035;48.900;9.188;2022-10-13T07:09:18;12.90;99.90
38239;DHT22;24035;48.900;9.188;2022-10-13T07:11:45;13.00;1.00
38239;DHT22;24035;48.900;9.188;2022-10-13T07:14:12;13.10;1.00
38239;DHT22;24035;48.900;9.188;2022-10-13T07:16:37;13.20;1.00
38239;DHT22;24035;48.900;9.188;2022-10-13T07:19:03;13.30;1.00
38239;DHT22;24035;48.900;9.188;2022-10-13T07:21:29;13.30;1.00
38239;DHT22;24035;48.900;9.188;2022-10-13T07:23:55;13.40;99.90
38239;DHT22;24035;48.900;9.188;2022-10-13T07:26:20;13.40;99.90
38239;DHT22;24035;48.900;9.188;2022-10-13T07:28:47;13.50;1.00
38239;DHT22;24035;48.900;9.188;2022-10-13T07:31:15;13.50;1.00
38239;DHT22;24035;48.900;9.188;2022-10-13T07:33:43;13.50;1.00
38239;DHT22;24035;48.900;9.188;2022-10-13T07:36:10;13.40;1.00
38239;DHT22;24035;48.900;9.188;2022-10-13T07:38:37;13.50;1.00
38239;DHT22;24035;48.900;9.188;2022-10-13T07:41:04;13.80;1.00
38239;DHT22;24035;48.900;9.188;2022-10-13T07:43:30;13.90;99.90
38239;DHT22;24035;48.900;9.188;2022-10-13T07:46:00;14.10;1.00
38239;DHT22;24035;48.900;9.188;2022-10-13T07:48:27;14.30;1.00
38239;DHT22;24035;48.900;9.188;2022-10-13T07:50:52;14.50;99.90
38239;DHT22;24035;48.900;9.188;2022-10-13T07:53:19;14.70;1.00
38239;DHT22;24035;48.900;9.188;2022-10-13T07:55:44;14.80;1.00
38239;DHT22;24035;48.900;9.188;2022-10-13T07:58:10;14.80;1.00
38239;DHT22;24035;48.900;9.188;2022-10-13T08:00:36;14.80;1.00
38239;DHT22;24035;48.900;9.188;2022-10-13T08:03:01;14.70;1.00
38239;DHT22;24035;48.900;9.188;2022-10-13T08:05:27;14.90;1.00
38239;DHT22;24035;48.900;9.188;2022-10-13T08:07:53;15.00;99.90
38239;DHT22;24035;48.900;9.188;2022-10-13T08:10:19;15.10;99.90
38239;DHT22;24035;48.900;9.188;2022-10-13T08:12:46;15.10;99.90
38239;DHT22;24035;48.900;9.188;2022-10-13T08:15:11;15.10;99.90
38239;DHT22;24035;48.900;9.188;2022-10-13T08:17:37;15.10;99.90
38239;DHT22;24035;48.900;9.188;2022-10-13T08:20:04;15.00;99.90
38239;DHT22;24035;48.900;9.188;2022-10-13T08:22:31;15.00;99.90
38239;DHT22;24035;48.900;9.188;2022-10-13T08:25:02;15.00;99.90
38239;DHT22;24035;48.900;9.188;2022-10-13T08:27:28;15.00;99.90
38239;DHT22;24035;48.900;9.188;2022-10-13T08:29:54;15.00;99.90
38239;DHT22;24035;48.900;9.188;2022-10-13T08:32:21;15.10;99.90
38239;DHT22;24035;48.900;9.188;2022-10-13T08:34:47;15.20;1.00
38239;DHT22;24035;48.900;9.188;2022-10-13T08:37:15;15.30;1.00
38239;DHT22;24035;48.900;9.188;2022-10-13T08:39:41;15.40;1.00
38239;DHT22;24035;48.900;9.188;2022-10-13T08:42:19;15.50;1.00
38239;DHT22;24035;48.900;9.188;2022-10-13T08:44:51;15.70;1.00
38239;DHT22;24035;48.900;9.188;2022-10-13T08:47:32;15.80;1.00
38239;DHT22;24035;48.900;9.188;2022-10-13T08:50:03;15.90;99.90
38239;DHT22;24035;48.900;9.188;2022-10-13T08:52:52;16.00;99.90
38239;DHT22;24035;48.900;9.188;2022-10-13T08:55:43;16.00;99.90
38239;DHT22;24035;48.900;9.188;2022-10-13T08:58:31;16.20;99.90
38239;DHT22;24035;48.900;9.188;2022-10-13T09:06:47;17.10;1.00
38239;DHT22;24035;48.900;9.188;2022-10-13T09:09:17;17.30;1.00
38239;DHT22;24035;48.900;9.188;2022-10-13T09:11:46;17.50;1.00
38239;DHT22;24035;48.900;9.188;2022-10-13T09:14:21;17.60;1.00
38239;DHT22;24035;48.900;9.188;2022-10-13T09:16:48;17.60;99.90
38239;DHT22;24035;48.900;9.188;2022-10-13T09:21:56;17.50;99.90
38239;DHT22;24035;48.900;9.188;2022-10-13T09:24:24;17.50;1.00
38239;DHT22;24035;48.900;9.188;2022-10-13T09:27:03;17.80;1.00
38239;DHT22;24035;48.900;9.188;2022-10-13T09:29:29;17.90;99.90
38239;DHT22;24035;48.900;9.188;2022-10-13T09:34:39;18.00;99.90
38239;DHT22;24035;48.900;9.188;2022-10-13T09:37:05;18.00;99.90
38239;DHT22;24035;48.900;9.188;2022-10-13T09:39:40;18.00;99.90
38239;DHT22;24035;48.900;9.188;2022-10-13T09:45:00;18.40;44.20
38239;DHT22;24035;48.900;9.188;2022-10-13T09:47:29;18.60;16.20
38239;DHT22;24035;48.900;9.188;2022-10-13T09:52:29;18.90;46.50
38239;DHT22;24035;48.900;9.188;2022-10-13T09:54:57;18.70;40.00
38239;DHT22;24035;48.900;9.188;2022-10-13T09:57:45;18.80;99.90
38239;DHT22;24035;48.900;9.188;2022-10-13T10:00:19;18.80;1.00
38239;DHT22;24035;48.900;9.188;2022-10-13T10:05:52;19.00;1.00
38239;DHT22;24035;48.900;9.188;2022-10-13T10:10:48;18.70;16.10
38239;DHT22;24035;48.900;9.188;2022-10-13T10:13:14;18.80;99.90
38239;DHT22;24035;48.900;9.188;2022-10-13T10:26:56;18.30;99.90
38239;DHT22;24035;48.900;9.188;2022-10-13T10:34:50;18.00;99.90
38239;DHT22;24035;48.900;9.188;2022-10-13T10:40:13;17.80;99.90
38239;DHT22;24035;48.900;9.188;2022-10-13T10:42:45;18.00;99.90
38239;DHT22;24035;48.900;9.188;2022-10-13T10:45:40;18.10;99.90
38239;DHT22;24035;48.900;9.188;2022-10-13T10:48:33;18.10;99.90
38239;DHT22;24035;48.900;9.188;2022-10-13T10:51:00;18.10;99.90
38239;DHT22;24035;48.900;9.188;2022-10-13T10:58:57;18.10;99.90
38239;DHT22;24035;48.900;9.188;2022-10-13T11:04:29;18.40;99.90
38239;DHT22;24035;48.900;9.188;2022-10-13T11:06:55;18.40;90.50
38239;DHT22;24035;48.900;9.188;2022-10-13T11:17:28;18.90;1.00
38239;DHT22;24035;48.900;9.188;2022-10-13T11:19:54;18.80;1.00
38239;DHT22;24035;48.900;9.188;2022-10-13T11:22:23;18.80;53.80
38239;DHT22;24035;48.900;9.188;2022-10-13T11:24:51;18.90;1.00
38239;DHT22;24035;48.900;9.188;2022-10-13T11:30:01;19.00;1.00
38239;DHT22;24035;48.900;9.188;2022-10-13T11:40:34;18.50;99.90
38239;DHT22;24035;48.900;9.188;2022-10-13T11:51:14;18.60;99.90
38239;DHT22;24035;48.900;9.188;2022-10-13T11:56:50;18.90;1.00
38239;DHT22;24035;48.900;9.188;2022-10-13T11:59:43;19.10;1.00
38239;DHT22;24035;48.900;9.188;2022-10-13T12:02:09;19.30;1.00
38239;DHT22;24035;48.900;9.188;2022-10-13T12:04:38;19.50;1.00
38239;DHT22;24035;48.900;9.188;2022-10-13T12:07:09;19.50;1.00
38239;DHT22;24035;48.900;9.188;2022-10-13T12:10:00;19.60;1.00
38239;DHT22;24035;48.900;9.188;2022-10-13T12:12:26;19.70;1.00
38239;DHT22;24035;48.900;9.188;2022-10-13T12:14:53;19.40;1.00
38239;DHT22;24035;48.900;9.188;2022-10-13T12:19:53;19.10;1.00
38239;DHT22;24035;48.900;9.188;2022-10-13T12:22:19;18.90;1.00
38239;DHT22;24035;48.900;9.188;2022-10-13T12:25:01;19.00;1.00
38239;DHT22;24035;48.900;9.188;2022-10-13T12:27:30;19.20;1.00
38239;DHT22;24035;48.900;9.188;2022-10-13T12:30:00;19.20;1.00
38239;DHT22;24035;48.900;9.188;2022-10-13T12:32:31;19.20;1.00
38239;DHT22;24035;48.900;9.188;2022-10-13T12:37:43;19.00;1.00
38239;DHT22;24035;48.900;9.188;2022-10-13T12:40:13;19.10;1.00
38239;DHT22;24035;48.900;9.188;2022-10-13T12:42:40;18.90;1.00
38239;DHT22;24035;48.900;9.188;2022-10-13T12:45:06;19.10;1.00
38239;DHT22;24035;48.900;9.188;2022-10-13T12:50:20;19.40;1.00
38239;DHT22;24035;48.900;9.188;2022-10-13T12:52:46;19.50;1.00
38239;DHT22;24035;48.900;9.188;2022-10-13T12:55:16;19.50;1.00
38239;DHT22;24035;48.900;9.188;2022-10-13T12:57:44;19.80;1.00
38239;DHT22;24035;48.900;9.188;2022-10-13T13:00:26;19.50;1.00
38239;DHT22;24035;48.900;9.188;2022-10-13T13:03:03;19.50;1.00
38239;DHT22;24035;48.900;9.188;2022-10-13T13:07:56;19.80;1.00
38239;DHT22;24035;48.900;9.188;2022-10-13T13:10:22;20.10;1.00
38239;DHT22;24035;48.900;9.188;2022-10-13T13:12:49;20.10;1.00
38239;DHT22;24035;48.900;9.188;2022-10-13T13:17:50;20.30;1.00
38239;DHT22;24035;48.900;9.188;2022-10-13T13:20:23;20.30;1.00
38239;DHT22;24035;48.900;9.188;2022-10-13T13:22:51;20.40;1.00
38239;DHT22;24035;48.900;9.188;2022-10-13T13:25:16;20.30;1.00
38239;DHT22;24035;48.900;9.188;2022-10-13T13:27:42;20.20;1.00
38239;DHT22;24035;48.900;9.188;2022-10-13T13:30:11;20.10;1.00
38239;DHT22;24035;48.900;9.188;2022-10-13T13:32:37;20.10;1.00
38239;DHT22;24035;48.900;9.188;2022-10-13T13:35:04;19.90;1.00
38239;DHT22;24035;48.900;9.188;2022-10-13T13:37:42;20.00;1.00
38239;DHT22;24035;48.900;9.188;2022-10-13T13:40:15;20.00;1.00
38239;DHT22;24035;48.900;9.188;2022-10-13T13:42:41;19.90;1.00
38239;DHT22;24035;48.900;9.188;2022-10-13T13:45:10;19.70;1.00
38239;DHT22;24035;48.900;9.188;2022-10-13T13:47:36;19.50;1.00
38239;DHT22;24035;48.900;9.188;2022-10-13T13:50:02;19.30;1.00
38239;DHT22;24035;48.900;9.188;2022-10-13T13:52:28;19.20;1.00
38239;DHT22;24035;48.900;9.188;2022-10-13T13:54:53;19.20;1.00
38239;DHT22;24035;48.900;9.188;2022-10-13T13:57:20;19.10;1.00
38239;DHT22;24035;48.900;9.188;2022-10-13T13:59:46;18.90;1.00
38239;DHT22;24035;48.900;9.188;2022-10-13T14:02:18;18.70;16.00
38239;DHT22;24035;48.900;9.188;2022-10-13T14:04:44;18.60;61.50
38239;DHT22;24035;48.900;9.188;2022-10-13T14:07:10;18.50;99.90
38239;DHT22;24035;48.900;9.188;2022-10-13T14:09:36;18.40;99.90
38239;DHT22;24035;48.900;9.188;2022-10-13T14:12:01;18.30;99.90
38239;DHT22;24035;48.900;9.188;2022-10-13T14:14:32;18.20;99.90
38239;DHT22;24035;48.900;9.188;2022-10-13T14:16:58;18.00;99.90
38239;DHT22;24035;48.900;9.188;2022-10-13T14:19:24;17.90;99.90
38239;DHT22;24035;48.900;9.188;2022-10-13T14:21:50;18.00;1.00
38239;DHT22;24035;48.900;9.188;2022-10-13T14:24:16;17.80;1.00
38239;DHT22;24035;48.900;9.188;2022-10-13T14:26:42;17.50;1.00
38239;DHT22;24035;48.900;9.188;2022-10-13T14:29:07;17.30;1.00
38239;DHT22;24035;48.900;9.188;2022-10-13T14:31:33;17.00;8.50
38239;DHT22;24035;48.900;9.188;2022-10-13T14:33:59;16.80;99.90
38239;DHT22;24035;48.900;9.188;2022-10-13T14:36:24;16.60;1.00
38239;DHT22;24035;48.900;9.188;2022-10-13T14:38:50;16.50;1.00
38239;DHT22;24035;48.900;9.188;2022-10-13T14:41:16;16.40;1.00
38239;DHT22;24035;48.900;9.188;2022-10-13T14:43:42;16.30;1.00
38239;DHT22;24035;48.900;9.188;2022-10-13T14:46:08;16.30;6.50
38239;DHT22;24035;48.900;9.188;2022-10-13T14:48:34;16.30;1.00
38239;DHT22;24035;48.900;9.188;2022-10-13T14:51:08;16.30;1.00
38239;DHT22;24035;48.900;9.188;2022-10-13T14:53:36;16.40;1.00
38239;DHT22;24035;48.900;9.188;2022-10-13T14:56:02;16.60;1.00
38239;DHT22;24035;48.900;9.188;2022-10-13T14:58:36;16.70;1.00
38239;DHT22;24035;48.900;9.188;2022-10-13T15:01:03;16.70;99.90
38239;DHT22;24035;48.900;9.188;2022-10-13T15:03:28;16.70;99.90
38239;DHT22;24035;48.900;9.188;2022-10-13T15:05:55;16.60;99.90
38239;DHT22;24035;48.900;9.188;2022-10-13T15:08:21;16.50;1.00
38239;DHT22;24035;48.900;9.188;2022-10-13T15:10:46;16.60;1.00
38239;DHT22;24035;48.900;9.188;2022-10-13T15:13:12;16.60;1.00
38239;DHT22;24035;48.900;9.188;2022-10-13T15:15:45;16.50;1.00
38239;DHT22;24035;48.900;9.188;2022-10-13T15:18:11;16.50;1.00
38239;DHT22;24035;48.900;9.188;2022-10-13T15:20:36;16.60;1.00
38239;DHT22;24035;48.900;9.188;2022-10-13T15:23:02;16.70;1.00
38239;DHT22;24035;48.900;9.188;2022-10-13T15:25:28;16.60;99.90
38239;DHT22;24035;48.900;9.188;2022-10-13T15:27:53;16.70;99.90
38239;DHT22;24035;48.900;9.188;2022-10-13T15:30:19;16.70;99.90
38239;DHT22;24035;48.900;9.188;2022-10-13T15:32:47;16.60;99.90
38239;DHT22;24035;48.900;9.188;2022-10-13T15:35:14;16.60;99.90
38239;DHT22;24035;48.900;9.188;2022-10-13T15:37:40;16.60;1.00
38239;DHT22;24035;48.900;9.188;2022-10-13T15:40:06;16.60;1.00
38239;DHT22;24035;48.900;9.188;2022-10-13T15:42:32;16.50;1.00
38239;DHT22;24035;48.900;9.188;2022-10-13T15:44:58;16.40;1.00
38239;DHT22;24035;48.900;9.188;2022-10-13T15:47:23;16.30;1.00
38239;DHT22;24035;48.900;9.188;2022-10-13T15:49:49;16.30;1.00
38239;DHT22;24035;48.900;9.188;2022-10-13T15:52:15;16.10;1.00
38239;DHT22;24035;48.900;9.188;2022-10-13T15:54:40;16.10;1.00
38239;DHT22;24035;48.900;9.188;2022-10-13T15:57:06;16.10;1.00
38239;DHT22;24035;48.900;9.188;2022-10-13T15:59:32;16.00;1.00
38239;DHT22;24035;48.900;9.188;2022-10-13T16:01:57;16.10;1.00
38239;DHT22;24035;48.900;9.188;2022-10-13T16:04:23;16.00;1.00
38239;DHT22;24035;48.900;9.188;2022-10-13T16:06:49;16.00;1.00
38239;DHT22;24035;48.900;9.188;2022-10-13T16:09:15;16.00;1.00
38239;DHT22;24035;48.900;9.188;2022-10-13T16:11:40;16.00;1.00
38239;DHT22;24035;48.900;9.188;2022-10-13T16:14:07;16.00;1.00
38239;DHT22;24035;48.900;9.188;2022-10-13T16:16:33;16.00;93.90
38239;DHT22;24035;48.900;9.188;2022-10-13T16:18:59;16.00;57.70
38239;DHT22;24035;48.900;9.188;2022-10-13T16:21:25;16.10;99.90
38239;DHT22;24035;48.900;9.188;2022-10-13T16:23:51;16.00;99.90
38239;DHT22;24035;48.900;9.188;2022-10-13T16:26:17;16.00;1.00
38239;DHT22;24035;48.900;9.188;2022-10-13T16:28:43;15.80;1.00
38239;DHT22;24035;48.900;9.188;2022-10-13T16:31:12;15.70;1.00
38239;DHT22;24035;48.900;9.188;2022-10-13T16:33:38;15.50;1.00
38239;DHT22;24035;48.900;9.188;2022-10-13T16:36:06;15.40;99.90
38239;DHT22;24035;48.900;9.188;2022-10-13T16:38:33;15.30;99.90
38239;DHT22;24035;48.900;9.188;2022-10-13T16:41:03;15.10;99.90
38239;DHT22;24035;48.900;9.188;2022-10-13T16:43:30;15.00;99.90
38239;DHT22;24035;48.900;9.188;2022-10-13T16:45:57;15.00;1.00
38239;DHT22;24035;48.900;9.188;2022-10-13T16:48:23;15.00;1.00
38239;DHT22;24035;48.900;9.188;2022-10-13T16:50:49;14.90;1.00
38239;DHT22;24035;48.900;9.188;2022-10-13T16:53:15;14.90;11.60
38239;DHT22;24035;48.900;9.188;2022-10-13T16:55:42;14.90;99.90
38239;DHT22;24035;48.900;9.188;2022-10-13T16:58:09;14.90;99.90
38239;DHT22;24035;48.900;9.188;2022-10-13T17:00:35;14.90;61.90
38239;DHT22;24035;48.900;9.188;2022-10-13T17:03:02;14.90;99.90
38239;DHT22;24035;48.900;9.188;2022-10-13T17:05:27;14.90;99.90
38239;DHT22;24035;48.900;9.188;2022-10-13T17:07:53;14.90;99.90
38239;DHT22;24035;48.900;9.188;2022-10-13T17:10:19;14.90;1.00
38239;DHT22;24035;48.900;9.188;2022-10-13T17:12:44;14.90;1.00
38239;DHT22;24035;48.900;9.188;2022-10-13T17:15:10;15.00;1.00
38239;DHT22;24035;48.900;9.188;2022-10-13T17:17:36;15.00;1.00
38239;DHT22;24035;48.900;9.188;2022-10-13T17:20:03;14.90;1.00
38239;DHT22;24035;48.900;9.188;2022-10-13T17:22:28;14.80;1.00
38239;DHT22;24035;48.900;9.188;2022-10-13T17:24:54;14.80;1.00
38239;DHT22;24035;48.900;9.188;2022-10-13T17:27:20;14.80;99.90
38239;DHT22;24035;48.900;9.188;2022-10-13T17:29:46;14.80;99.90
38239;DHT22;24035;48.900;9.188;2022-10-13T17:32:11;14.70;99.90
38239;DHT22;24035;48.900;9.188;2022-10-13T17:34:37;14.60;99.90
38239;DHT22;24035;48.900;9.188;2022-10-13T17:37:04;14.60;1.00
38239;DHT22;24035;48.900;9.188;2022-10-13T17:39:30;14.70;99.90
38239;DHT22;24035;48.900;9.188;2022-10-13T17:41:56;14.70;99.90
38239;DHT22;24035;48.900;9.188;2022-10-13T17:44:21;14.60;99.90
38239;DHT22;24035;48.900;9.188;2022-10-13T17:46:48;14.70;99.90
38239;DHT22;24035;48.900;9.188;2022-10-13T17:49:14;14.60;1.00